createdAt,value
2022-09-03T00:00:01.035Z,16.53
2022-09-03T00:02:43.916Z,16.49
2022-09-03T00:05:23.443Z,16.49
2022-09-03T00:08:04.092Z,16.45
2022-09-03T00:10:45.117Z,16.42
2022-09-03T00:13:27.660Z,16.38
2022-09-03T00:15:59.187Z,16.34
2022-09-03T00:18:35.143Z,16.32
2022-09-03T00:21:10.198Z,16.32
2022-09-03T00:23:44.656Z,16.30
2022-09-03T00:26:31.265Z,16.21
2022-09-03T00:29:11.051Z,16.22
2022-09-03T00:31:45.364Z,16.18
2022-09-03T00:34:27.160Z,16.12
2022-09-03T00:36:57.657Z,16.14
2022-09-03T00:39:30.891Z,16.12
2022-09-03T00:42:23.767Z,16.15
2022-09-03T00:45:21.642Z,16.11
2022-09-03T00:48:09.574Z,16.12
2022-09-03T00:50:52.494Z,16.13
2022-09-03T00:53:33.918Z,16.11
2022-09-03T00:56:16.270Z,16.09
2022-09-03T00:59:03.477Z,16.11
2022-09-03T01:01:44.006Z,16.14
2022-09-03T01:04:33.271Z,16.12
2022-09-03T01:07:14.431Z,16.13
2022-09-03T01:09:56.589Z,16.07
2022-09-03T01:12:39.979Z,16.05
2022-09-03T01:15:20.507Z,16.02
2022-09-03T01:18:09.026Z,16.04
2022-09-03T01:20:57.144Z,16.00
2022-09-03T01:23:56.457Z,15.99
2022-09-03T01:26:59.243Z,16.02
2022-09-03T01:29:39.722Z,15.95
2022-09-03T01:32:16.959Z,15.94
2022-09-03T01:34:59.148Z,15.93
2022-09-03T01:37:44.218Z,15.94
2022-09-03T01:40:27.370Z,15.87
2022-09-03T01:43:16.099Z,15.89
2022-09-03T01:46:00.322Z,15.88
2022-09-03T01:48:46.437Z,15.85
2022-09-03T01:51:26.506Z,15.85
2022-09-03T01:54:20.992Z,15.78
2022-09-03T01:57:35.600Z,15.82
2022-09-03T02:00:13.673Z,15.87
2022-09-03T02:02:51.598Z,15.88
2022-09-03T02:05:24.971Z,15.91
2022-09-03T02:08:01.356Z,15.83
2022-09-03T02:10:35.897Z,15.83
2022-09-03T02:13:11.335Z,15.81
2022-09-03T02:15:45.901Z,15.76
2022-09-03T02:18:23.596Z,15.78
2022-09-03T02:20:57.689Z,15.80
2022-09-03T02:23:32.834Z,15.79
2022-09-03T02:26:10.899Z,15.83
2022-09-03T02:28:50.979Z,15.82
2022-09-03T02:31:30.206Z,15.77
2022-09-03T02:34:11.401Z,15.76
2022-09-03T02:36:49.681Z,15.75
2022-09-03T02:39:25.078Z,15.75
2022-09-03T02:42:03.369Z,15.81
2022-09-03T02:44:37.652Z,15.88
2022-09-03T02:47:10.174Z,15.88
2022-09-03T02:49:43.021Z,15.85
2022-09-03T02:52:14.028Z,15.76
2022-09-03T02:54:45.743Z,15.68
2022-09-03T02:57:27.253Z,15.63
2022-09-03T02:59:58.047Z,15.48
2022-09-03T03:02:28.295Z,15.43
2022-09-03T03:05:01.790Z,15.38
2022-09-03T03:07:35.589Z,15.42
2022-09-03T03:10:05.794Z,15.44
2022-09-03T03:12:36.086Z,15.38
2022-09-03T03:15:06.761Z,15.35
2022-09-03T03:17:36.966Z,15.39
2022-09-03T03:20:12.093Z,15.39
2022-09-03T03:22:42.225Z,15.43
2022-09-03T03:25:13.078Z,15.33
2022-09-03T03:27:43.465Z,15.29
2022-09-03T03:30:15.666Z,15.26
2022-09-03T03:32:45.867Z,15.26
2022-09-03T03:35:18.851Z,15.32
2022-09-03T03:37:49.127Z,15.32
2022-09-03T03:40:20.320Z,15.34
2022-09-03T03:42:50.980Z,15.40
2022-09-03T03:45:21.182Z,15.36
2022-09-03T03:47:51.377Z,15.33
2022-09-03T03:50:24.286Z,15.34
2022-09-03T03:52:54.424Z,15.25
2022-09-03T03:55:24.575Z,15.24
2022-09-03T03:57:57.327Z,15.25
2022-09-03T04:00:27.476Z,15.16
2022-09-03T04:02:57.756Z,15.08
2022-09-03T04:05:33.593Z,15.02
2022-09-03T04:08:05.510Z,14.97
2022-09-03T04:10:35.824Z,14.95
2022-09-03T04:13:06.034Z,14.94
2022-09-03T04:15:37.181Z,14.87
2022-09-03T04:18:07.505Z,14.84
2022-09-03T04:20:40.497Z,14.85
2022-09-03T04:23:10.922Z,14.81
2022-09-03T04:25:41.967Z,14.81
2022-09-03T04:28:12.772Z,14.79
2022-09-03T04:30:42.961Z,14.82
2022-09-03T04:33:17.719Z,14.78
2022-09-03T04:35:50.502Z,14.77
2022-09-03T04:38:20.617Z,14.77
2022-09-03T04:40:55.636Z,14.89
2022-09-03T04:43:26.118Z,14.89
2022-09-03T04:46:01.241Z,14.99
2022-09-03T04:48:33.247Z,15.08
2022-09-03T04:51:13.494Z,15.18
2022-09-03T04:53:46.556Z,15.23
2022-09-03T04:56:18.334Z,15.22
2022-09-03T04:58:51.069Z,15.19
2022-09-03T05:01:24.511Z,15.19
2022-09-03T05:03:54.972Z,15.20
2022-09-03T05:06:28.136Z,15.30
2022-09-03T05:08:59.776Z,15.26
2022-09-03T05:11:31.456Z,15.28
2022-09-03T05:14:03.672Z,15.32
2022-09-03T05:16:33.868Z,15.37
2022-09-03T05:19:07.458Z,15.37
2022-09-03T05:21:40.466Z,15.40
2022-09-03T05:24:11.551Z,15.41
2022-09-03T05:26:42.880Z,15.48
2022-09-03T05:29:14.436Z,15.64
2022-09-03T05:31:44.720Z,15.68
2022-09-03T05:34:16.634Z,15.78
2022-09-03T05:36:53.220Z,15.82
2022-09-03T05:39:23.486Z,15.98
2022-09-03T05:41:53.801Z,15.98
2022-09-03T05:44:24.326Z,16.10
2022-09-03T05:46:54.908Z,16.27
2022-09-03T05:49:25.497Z,16.34
2022-09-03T05:51:58.220Z,16.51
2022-09-03T05:54:28.375Z,16.66
2022-09-03T05:56:58.586Z,16.83
2022-09-03T05:59:28.749Z,17.02
2022-09-03T06:02:00.314Z,17.22
2022-09-03T06:04:30.778Z,17.44
2022-09-03T06:07:03.653Z,17.59
2022-09-03T06:09:33.917Z,17.81
2022-09-03T06:12:04.589Z,18.02
2022-09-03T06:14:35.014Z,18.11
2022-09-03T06:17:05.232Z,18.14
2022-09-03T06:19:35.436Z,18.34
2022-09-03T06:22:08.299Z,18.35
2022-09-03T06:24:38.726Z,18.50
2022-09-03T06:27:08.985Z,18.78
2022-09-03T06:29:40.030Z,19.00
2022-09-03T06:32:10.458Z,19.09
2022-09-03T06:34:40.794Z,19.21
2022-09-03T06:37:16.513Z,19.32
2022-09-03T06:39:46.820Z,19.54
2022-09-03T06:42:17.611Z,19.62
2022-09-03T06:44:49.050Z,19.82
2022-09-03T06:47:19.200Z,19.98
2022-09-03T06:49:49.385Z,20.22
2022-09-03T06:52:22.425Z,20.36
2022-09-03T06:54:52.554Z,20.56
2022-09-03T06:57:22.925Z,20.63
2022-09-03T06:59:54.798Z,20.84
2022-09-03T07:02:25.146Z,21.09
2022-09-03T07:04:55.352Z,21.29
2022-09-03T07:07:28.151Z,21.33
2022-09-03T07:09:58.313Z,21.49
2022-09-03T07:12:28.603Z,21.68
2022-09-03T07:14:58.746Z,21.76
2022-09-03T07:17:30.471Z,21.94
2022-09-03T07:20:00.715Z,22.17
2022-09-03T07:22:33.517Z,22.35
2022-09-03T07:25:03.662Z,22.51
2022-09-03T07:27:33.778Z,22.57
2022-09-03T07:30:04.115Z,22.67
2022-09-03T07:32:34.308Z,22.84
2022-09-03T07:35:05.126Z,22.88
2022-09-03T07:37:38.569Z,23.05
2022-09-03T07:40:10.684Z,23.27
2022-09-03T07:42:41.554Z,23.41
2022-09-03T07:45:13.533Z,23.64
2022-09-03T07:47:51.646Z,23.84
2022-09-03T07:50:21.751Z,24.14
2022-09-03T07:53:00.392Z,24.42
2022-09-03T07:55:30.558Z,24.63
2022-09-03T07:58:00.722Z,25.17
2022-09-03T08:00:34.066Z,25.63
2022-09-03T08:03:08.495Z,26.14
2022-09-03T08:05:40.149Z,26.75
2022-09-03T08:08:15.560Z,27.38
2022-09-03T08:10:47.768Z,28.21
2022-09-03T08:13:17.948Z,28.90
2022-09-03T08:15:59.670Z,29.83
2022-09-03T08:18:35.535Z,30.63
2022-09-03T08:21:06.482Z,30.99
2022-09-03T08:23:40.854Z,31.49
2022-09-03T08:26:12.327Z,31.86
2022-09-03T08:28:43.198Z,32.15
2022-09-03T08:31:16.946Z,32.10
2022-09-03T08:33:50.777Z,32.49
2022-09-03T08:36:22.982Z,31.56
2022-09-03T08:38:57.735Z,29.98
2022-09-03T08:41:44.581Z,31.30
2022-09-03T08:44:28.070Z,32.14
2022-09-03T08:47:05.223Z,32.35
2022-09-03T08:49:43.246Z,33.10
2022-09-03T08:52:29.024Z,33.44
2022-09-03T08:55:16.359Z,33.81
2022-09-03T08:57:52.257Z,33.85
2022-09-03T09:00:23.010Z,33.91
2022-09-03T09:03:11.013Z,33.88
2022-09-03T09:05:54.999Z,33.80
2022-09-03T09:08:35.854Z,33.95
2022-09-03T09:11:22.437Z,34.20
2022-09-03T09:14:01.242Z,34.12
2022-09-03T09:16:42.556Z,34.56
2022-09-03T09:19:34.742Z,34.56
2022-09-03T09:22:08.333Z,34.71
2022-09-03T09:24:44.659Z,34.51
2022-09-03T09:27:19.627Z,34.73
2022-09-03T09:29:53.287Z,34.24
2022-09-03T09:32:23.845Z,34.21
2022-09-03T09:34:54.618Z,34.46
2022-09-03T09:37:24.880Z,34.56
2022-09-03T09:40:00.736Z,34.24
2022-09-03T09:42:33.774Z,34.64
2022-09-03T09:45:13.929Z,34.84
2022-09-03T09:47:44.958Z,35.21
2022-09-03T09:50:25.051Z,33.83
2022-09-03T09:53:08.753Z,33.53
2022-09-03T09:55:39.235Z,34.18
2022-09-03T09:58:14.627Z,34.53
2022-09-03T10:00:45.031Z,34.63
2022-09-03T10:03:17.187Z,34.90
2022-09-03T10:06:01.262Z,34.87
2022-09-03T10:08:31.441Z,34.99
2022-09-03T10:11:01.598Z,35.08
2022-09-03T10:13:43.052Z,35.03
2022-09-03T10:16:27.619Z,35.36
2022-09-03T10:19:09.820Z,34.79
2022-09-03T10:21:48.720Z,34.65
2022-09-03T10:24:39.707Z,34.85
2022-09-03T10:27:14.937Z,35.09
2022-09-03T10:29:50.364Z,35.38
2022-09-03T10:32:47.683Z,35.03
2022-09-03T10:35:31.049Z,35.20
2022-09-03T10:38:13.669Z,34.81
2022-09-03T10:40:53.066Z,34.80
2022-09-03T10:43:52.135Z,35.07
2022-09-03T10:46:30.810Z,35.49
2022-09-03T10:49:24.088Z,35.80
2022-09-03T10:52:06.206Z,36.07
2022-09-03T10:54:52.182Z,35.42
2022-09-03T10:57:38.401Z,35.63
2022-09-03T11:00:13.086Z,36.06
2022-09-03T11:03:34.682Z,36.53
2022-09-03T11:06:11.767Z,36.50
2022-09-03T11:08:47.971Z,36.23
2022-09-03T11:11:26.707Z,36.77
2022-09-03T11:14:02.822Z,36.99
2022-09-03T11:16:37.040Z,37.63
2022-09-03T11:19:15.778Z,38.12
2022-09-03T11:21:46.762Z,37.51
2022-09-03T11:24:23.268Z,38.28
2022-09-03T11:27:02.221Z,38.87
2022-09-03T11:29:39.234Z,39.30
2022-09-03T11:32:13.957Z,39.81
2022-09-03T11:34:55.605Z,40.24
2022-09-03T11:37:28.308Z,39.72
2022-09-03T11:40:02.830Z,39.96
2022-09-03T11:42:37.864Z,40.25
2022-09-03T11:45:26.634Z,40.39
2022-09-03T11:47:57.123Z,40.31
2022-09-03T11:50:32.398Z,40.43
2022-09-03T11:53:13.107Z,40.75
2022-09-03T11:55:57.359Z,40.87
2022-09-03T11:58:30.066Z,40.00
2022-09-03T12:01:02.217Z,39.59
2022-09-03T12:03:45.698Z,39.56
2022-09-03T12:06:45.366Z,39.06
2022-09-03T12:09:58.044Z,39.83
2022-09-03T12:12:49.083Z,40.17
2022-09-03T12:15:56.450Z,40.70
2022-09-03T12:18:29.976Z,41.02
2022-09-03T12:21:09.294Z,41.31
2022-09-03T12:23:47.645Z,40.93
2022-09-03T12:26:21.111Z,41.42
2022-09-03T12:28:56.125Z,41.26
2022-09-03T12:31:30.107Z,40.50
2022-09-03T12:34:04.613Z,40.46
2022-09-03T12:36:42.455Z,41.47
2022-09-03T12:39:18.868Z,40.86
2022-09-03T12:42:03.929Z,41.06
2022-09-03T12:44:36.404Z,41.44
2022-09-03T12:50:07.765Z,41.86
2022-09-03T12:52:42.800Z,41.91
2022-09-03T12:55:31.239Z,42.16
2022-09-03T12:58:09.306Z,42.11
2022-09-03T13:00:49.442Z,42.09
2022-09-03T13:03:24.779Z,42.02
2022-09-03T13:05:58.636Z,42.25
2022-09-03T13:08:33.676Z,42.63
2022-09-03T13:11:08.687Z,42.63
2022-09-03T13:13:40.881Z,42.54
2022-09-03T13:16:48.415Z,42.89
2022-09-03T13:19:26.514Z,42.88
2022-09-03T13:22:09.965Z,43.09
2022-09-03T13:25:04.390Z,42.67
2022-09-03T13:27:48.443Z,42.80
2022-09-03T13:30:23.285Z,42.54
2022-09-03T13:33:02.052Z,42.08
2022-09-03T13:35:38.038Z,42.56
2022-09-03T13:38:27.472Z,42.82
2022-09-03T13:41:03.377Z,40.48
2022-09-03T13:43:45.000Z,38.72
2022-09-03T13:46:20.834Z,39.84
2022-09-03T13:49:06.336Z,39.30
2022-09-03T13:51:47.226Z,39.56
2022-09-03T13:54:47.749Z,40.41
2022-09-03T13:57:33.862Z,41.18
2022-09-03T14:00:12.823Z,39.82
2022-09-03T14:02:54.412Z,39.91
2022-09-03T14:05:50.206Z,40.48
2022-09-03T14:08:31.807Z,40.97
2022-09-03T14:11:16.454Z,41.06
2022-09-03T14:14:03.560Z,40.86
2022-09-03T14:16:44.471Z,40.89
2022-09-03T14:19:21.978Z,41.16
2022-09-03T14:21:59.735Z,41.19
2022-09-03T14:24:37.330Z,40.76
2022-09-03T14:27:08.180Z,39.99
2022-09-03T14:29:39.782Z,39.48
2022-09-03T14:32:48.747Z,39.89
2022-09-03T14:35:35.355Z,40.03
2022-09-03T14:38:36.052Z,39.83
2022-09-03T14:41:34.409Z,39.43
2022-09-03T14:44:29.669Z,39.19
2022-09-03T14:47:15.603Z,39.48
2022-09-03T14:50:15.326Z,39.35
2022-09-03T14:53:18.275Z,39.68
2022-09-03T14:56:20.618Z,39.13
2022-09-03T14:59:18.594Z,38.16
2022-09-03T15:01:57.099Z,38.28
2022-09-03T15:04:50.174Z,38.37
2022-09-03T15:07:36.018Z,37.87
2022-09-03T15:10:19.345Z,37.63
2022-09-03T15:12:55.494Z,37.26
2022-09-03T15:15:35.290Z,37.13
2022-09-03T15:18:18.057Z,37.06
2022-09-03T15:20:56.847Z,36.71
2022-09-03T15:23:52.180Z,36.38
2022-09-03T15:26:46.694Z,36.01
2022-09-03T15:29:52.379Z,35.75
2022-09-03T15:32:40.528Z,35.61
2022-09-03T15:35:14.021Z,35.48
2022-09-03T15:37:50.954Z,35.12
2022-09-03T15:40:34.643Z,34.97
2022-09-03T15:43:12.737Z,34.82
2022-09-03T15:45:57.762Z,34.35
2022-09-03T15:48:39.444Z,33.86
2022-09-03T15:51:20.307Z,33.26
2022-09-03T15:53:57.841Z,32.48
2022-09-03T15:56:38.716Z,32.18
2022-09-03T15:59:19.395Z,31.53
2022-09-03T16:01:58.198Z,31.20
2022-09-03T16:04:53.663Z,30.66
2022-09-03T16:07:29.715Z,30.11
2022-09-03T16:10:28.220Z,29.70
2022-09-03T16:13:09.696Z,29.09
2022-09-03T16:15:46.415Z,28.57
2022-09-03T16:18:30.318Z,28.13
2022-09-03T16:21:06.716Z,27.54
2022-09-03T16:23:45.858Z,27.05
2022-09-03T16:26:25.584Z,26.74
2022-09-03T16:29:03.731Z,26.51
2022-09-03T16:31:54.164Z,26.27
2022-09-03T16:34:32.317Z,26.08
2022-09-03T16:37:28.926Z,25.87
2022-09-03T16:40:15.848Z,25.62
2022-09-03T16:42:58.311Z,25.47
2022-09-03T16:45:38.808Z,25.34
2022-09-03T16:48:18.314Z,25.18
2022-09-03T16:51:16.123Z,25.00
2022-09-03T16:54:12.780Z,24.91
2022-09-03T16:57:12.309Z,24.71
2022-09-03T17:00:08.115Z,24.65
2022-09-03T17:03:26.060Z,24.57
2022-09-03T17:06:34.592Z,24.46
2022-09-03T17:09:22.128Z,24.38
2022-09-03T17:12:12.021Z,24.22
2022-09-03T17:15:01.383Z,24.12
2022-09-03T17:18:10.536Z,24.08
2022-09-03T17:20:52.985Z,24.09
2022-09-03T17:24:20.116Z,24.05
2022-09-03T17:27:03.945Z,24.00
2022-09-03T17:29:54.850Z,24.00
2022-09-03T17:32:41.980Z,23.88
2022-09-03T17:35:20.774Z,23.76
2022-09-03T17:38:08.093Z,23.76
2022-09-03T17:40:50.088Z,23.75
2022-09-03T17:43:30.814Z,23.76
2022-09-03T17:46:17.294Z,23.75
2022-09-03T17:48:54.436Z,23.76
2022-09-03T17:51:46.396Z,23.70
2022-09-03T17:54:27.539Z,23.66
2022-09-03T17:57:09.432Z,23.63
2022-09-03T17:59:49.969Z,23.55
2022-09-03T18:02:35.081Z,23.31
2022-09-03T18:05:21.478Z,23.21
2022-09-03T18:08:03.759Z,23.13
2022-09-03T18:10:48.043Z,23.05
2022-09-03T18:13:30.792Z,23.01
2022-09-03T18:16:09.731Z,22.98
2022-09-03T18:18:47.854Z,22.94
2022-09-03T18:21:37.558Z,22.89
2022-09-03T18:24:39.166Z,22.81
2022-09-03T18:27:29.439Z,22.70
2022-09-03T18:30:20.832Z,22.63
2022-09-03T18:33:03.569Z,22.60
2022-09-03T18:35:50.066Z,22.57
2022-09-03T18:38:41.240Z,22.55
2022-09-03T18:41:48.250Z,22.48
2022-09-03T18:44:45.190Z,22.42
2022-09-03T18:48:08.402Z,22.42
2022-09-03T18:51:02.188Z,22.37
2022-09-03T18:54:00.719Z,22.34
2022-09-03T18:56:55.959Z,22.33
2022-09-03T18:59:57.434Z,22.27
2022-09-03T19:02:52.102Z,22.19
2022-09-03T19:05:43.520Z,22.12
2022-09-03T19:08:33.576Z,22.05
2022-09-03T19:11:24.453Z,22.04
2022-09-03T19:14:13.271Z,21.98
2022-09-03T19:17:09.345Z,21.98
2022-09-03T19:20:12.133Z,22.04
2022-09-03T19:22:57.151Z,22.05
2022-09-03T19:25:42.169Z,22.07
2022-09-03T19:28:33.054Z,22.08
2022-09-03T19:31:46.822Z,22.05
2022-09-03T19:34:52.143Z,22.05
2022-09-03T19:37:39.064Z,22.03
2022-09-03T19:40:44.999Z,21.97
2022-09-03T19:43:39.771Z,21.98
2022-09-03T19:46:38.333Z,21.98
2022-09-03T19:49:35.174Z,21.96
2022-09-03T19:52:25.718Z,21.97
2022-09-03T19:55:11.143Z,21.98
2022-09-03T19:57:57.389Z,21.95
2022-09-03T20:00:40.034Z,21.94
2022-09-03T20:03:29.230Z,21.93
2022-09-03T20:06:11.856Z,21.91
2022-09-03T20:08:54.592Z,21.93
2022-09-03T20:11:27.782Z,21.93
2022-09-03T20:14:12.770Z,21.96
2022-09-03T20:17:09.321Z,21.97
2022-09-03T20:19:58.686Z,21.94
2022-09-03T20:22:34.490Z,21.90
2022-09-03T20:25:31.038Z,21.85
2022-09-03T20:28:14.709Z,21.80
2022-09-03T20:30:53.434Z,21.81
2022-09-03T20:33:47.262Z,21.79
2022-09-03T20:36:32.370Z,21.82
2022-09-03T20:39:28.042Z,21.82
2022-09-03T20:42:14.741Z,21.79
2022-09-03T20:44:58.472Z,21.77
2022-09-03T20:48:00.458Z,21.79
2022-09-03T20:50:44.152Z,21.74
2022-09-03T20:53:52.831Z,21.72
2022-09-03T20:56:31.693Z,21.72
2022-09-03T20:59:11.905Z,21.73
2022-09-03T21:01:55.734Z,21.74
2022-09-03T21:04:45.090Z,21.70
2022-09-03T21:07:25.012Z,21.59
2022-09-03T21:10:06.980Z,21.52
2022-09-03T21:12:47.299Z,21.50
2022-09-03T21:15:26.337Z,21.50
2022-09-03T21:18:08.222Z,21.49
2022-09-03T21:20:48.929Z,21.44
2022-09-03T21:23:25.881Z,21.43
2022-09-03T21:26:05.687Z,21.46
2022-09-03T21:28:42.077Z,21.45
2022-09-03T21:31:22.909Z,21.44
2022-09-03T21:34:10.638Z,21.43
2022-09-03T21:36:45.940Z,21.43
2022-09-03T21:39:23.069Z,21.40
2022-09-03T21:42:03.517Z,21.41
2022-09-03T21:44:55.892Z,21.46
2022-09-03T21:47:30.570Z,21.43
2022-09-03T21:50:16.329Z,21.43
2022-09-03T21:52:55.353Z,21.48
2022-09-03T21:55:37.350Z,21.45
2022-09-03T21:58:25.796Z,21.39
2022-09-03T22:01:04.539Z,21.35
2022-09-03T22:03:34.895Z,21.33
2022-09-03T22:06:11.197Z,21.35
2022-09-03T22:08:50.056Z,21.38
2022-09-03T22:11:29.616Z,21.21
2022-09-03T22:14:09.395Z,21.20
2022-09-03T22:16:48.252Z,21.19
2022-09-03T22:19:18.903Z,21.18
2022-09-03T22:21:59.767Z,21.17
2022-09-03T22:24:42.611Z,21.15
2022-09-03T22:27:22.762Z,21.11
2022-09-03T22:30:07.267Z,21.12
2022-09-03T22:32:56.282Z,21.14
2022-09-03T22:35:52.889Z,21.11
2022-09-03T22:39:02.338Z,21.10
2022-09-03T22:42:10.044Z,21.08
2022-09-03T22:45:18.322Z,21.08
2022-09-03T22:48:04.315Z,21.03
2022-09-03T22:50:42.904Z,20.98
2022-09-03T22:53:25.182Z,20.93
2022-09-03T22:56:03.847Z,20.88
2022-09-03T22:58:39.409Z,20.83
2022-09-03T23:01:20.573Z,20.80
2022-09-03T23:03:56.851Z,20.76
2022-09-03T23:06:35.211Z,20.76
2022-09-03T23:09:09.406Z,20.69
2022-09-03T23:11:45.217Z,20.67
2022-09-03T23:14:20.153Z,20.66
2022-09-03T23:16:58.040Z,20.65
2022-09-03T23:19:38.959Z,20.63
2022-09-03T23:22:13.491Z,20.58
2022-09-03T23:24:48.145Z,20.56
2022-09-03T23:27:23.594Z,20.56
2022-09-03T23:29:58.044Z,20.53
2022-09-03T23:32:33.720Z,20.47
2022-09-03T23:35:06.905Z,20.44
2022-09-03T23:37:56.639Z,20.42
2022-09-03T23:40:53.137Z,20.37
2022-09-03T23:43:59.580Z,20.32
2022-09-03T23:46:39.638Z,20.26
2022-09-03T23:49:29.952Z,20.19
2022-09-03T23:52:28.712Z,20.14
2022-09-03T23:55:12.145Z,20.04
2022-09-03T23:57:57.118Z,20.02
